sensor_id;sensor_type;location;lat;lon;timestamp;temperature;humidity
65972;SHT31;52726;48.852;9.152;2023-05-29T00:01:27;13.35;70.59
65972;SHT31;52726;48.852;9.152;2023-05-29T00:03:53;13.39;70.57
65972;SHT31;52726;48.852;9.152;2023-05-29T00:06:21;13.28;71.10
65972;SHT31;52726;48.852;9.152;2023-05-29T00:08:46;13.24;71.15
65972;SHT31;52726;48.852;9.152;2023-05-29T00:11:12;13.24;71.34
65972;SHT31;52726;48.852;9.152;2023-05-29T00:13:37;13.25;71.15
65972;SHT31;52726;48.852;9.152;2023-05-29T00:16:03;13.14;72.05
65972;SHT31;52726;48.852;9.152;2023-05-29T00:18:29;13.01;72.10
65972;SHT31;52726;48.852;9.152;2023-05-29T00:20:55;13.04;72.28
65972;SHT31;52726;48.852;9.152;2023-05-29T00:23:21;13.04;71.93
65972;SHT31;52726;48.852;9.152;2023-05-29T00:25:47;13.03;71.90
65972;SHT31;52726;48.852;9.152;2023-05-29T00:28:12;12.94;72.50
65972;SHT31;52726;48.852;9.152;2023-05-29T00:30:38;12.91;72.32
65972;SHT31;52726;48.852;9.152;2023-05-29T00:33:04;12.89;73.09
65972;SHT31;52726;48.852;9.152;2023-05-29T00:35:30;12.93;72.80
65972;SHT31;52726;48.852;9.152;2023-05-29T00:37:55;12.90;72.74
65972;SHT31;52726;48.852;9.152;2023-05-29T00:40:21;12.93;72.52
65972;SHT31;52726;48.852;9.152;2023-05-29T00:42:46;12.87;72.66
65972;SHT31;52726;48.852;9.152;2023-05-29T00:45:12;12.81;73.09
65972;SHT31;52726;48.852;9.152;2023-05-29T00:47:39;12.75;73.08
65972;SHT31;52726;48.852;9.152;2023-05-29T00:50:05;12.79;72.97
65972;SHT31;52726;48.852;9.152;2023-05-29T00:52:31;12.81;72.82
65972;SHT31;52726;48.852;9.152;2023-05-29T00:54:57;12.73;73.38
65972;SHT31;52726;48.852;9.152;2023-05-29T00:57:25;12.75;73.70
65972;SHT31;52726;48.852;9.152;2023-05-29T00:59:51;12.69;73.48
65972;SHT31;52726;48.852;9.152;2023-05-29T01:02:16;12.64;73.34
65972;SHT31;52726;48.852;9.152;2023-05-29T01:04:42;12.70;73.74
65972;SHT31;52726;48.852;9.152;2023-05-29T01:07:08;12.64;73.15
65972;SHT31;52726;48.852;9.152;2023-05-29T01:09:34;12.59;73.90
65972;SHT31;52726;48.852;9.152;2023-05-29T01:15:24;12.49;73.92
65972;SHT31;52726;48.852;9.152;2023-05-29T01:20:33;12.38;74.58
65972;SHT31;52726;48.852;9.152;2023-05-29T01:25:46;12.33;74.19
65972;SHT31;52726;48.852;9.152;2023-05-29T01:28:12;12.33;74.11
65972;SHT31;52726;48.852;9.152;2023-05-29T01:30:40;12.28;74.58
65972;SHT31;52726;48.852;9.152;2023-05-29T01:33:05;12.17;75.32
65972;SHT31;52726;48.852;9.152;2023-05-29T01:35:31;12.17;75.58
65972;SHT31;52726;48.852;9.152;2023-05-29T01:37:57;12.11;75.74
65972;SHT31;52726;48.852;9.152;2023-05-29T01:40:22;12.10;75.10
65972;SHT31;52726;48.852;9.152;2023-05-29T01:42:48;12.11;75.39
65972;SHT31;52726;48.852;9.152;2023-05-29T01:45:14;12.04;75.57
65972;SHT31;52726;48.852;9.152;2023-05-29T01:47:42;11.95;75.79
65972;SHT31;52726;48.852;9.152;2023-05-29T01:50:08;11.94;76.06
65972;SHT31;52726;48.852;9.152;2023-05-29T01:52:34;11.93;75.95
65972;SHT31;52726;48.852;9.152;2023-05-29T01:55:00;11.91;75.69
65972;SHT31;52726;48.852;9.152;2023-05-29T01:57:25;11.88;75.51
65972;SHT31;52726;48.852;9.152;2023-05-29T01:59:51;11.85;76.06
65972;SHT31;52726;48.852;9.152;2023-05-29T02:02:17;11.81;75.75
65972;SHT31;52726;48.852;9.152;2023-05-29T02:04:42;11.83;76.31
65972;SHT31;52726;48.852;9.152;2023-05-29T02:07:08;11.74;76.10
65972;SHT31;52726;48.852;9.152;2023-05-29T02:09:35;11.69;76.33
65972;SHT31;52726;48.852;9.152;2023-05-29T02:12:00;11.60;76.86
65972;SHT31;52726;48.852;9.152;2023-05-29T02:14:27;11.60;77.21
65972;SHT31;52726;48.852;9.152;2023-05-29T02:16:52;11.57;77.05
65972;SHT31;52726;48.852;9.152;2023-05-29T02:19:18;11.55;76.84
65972;SHT31;52726;48.852;9.152;2023-05-29T02:21:44;11.42;77.86
65972;SHT31;52726;48.852;9.152;2023-05-29T02:24:09;11.37;77.69
65972;SHT31;52726;48.852;9.152;2023-05-29T02:26:35;11.25;78.49
65972;SHT31;52726;48.852;9.152;2023-05-29T02:29:03;11.20;77.98
65972;SHT31;52726;48.852;9.152;2023-05-29T02:31:31;11.12;78.62
65972;SHT31;52726;48.852;9.152;2023-05-29T02:33:57;11.09;78.21
65972;SHT31;52726;48.852;9.152;2023-05-29T02:36:22;11.02;78.84
65972;SHT31;52726;48.852;9.152;2023-05-29T02:38:48;11.01;78.43
65972;SHT31;52726;48.852;9.152;2023-05-29T02:41:13;10.99;78.57
65972;SHT31;52726;48.852;9.152;2023-05-29T02:43:39;10.90;79.14
65972;SHT31;52726;48.852;9.152;2023-05-29T02:46:04;10.77;79.68
65972;SHT31;52726;48.852;9.152;2023-05-29T02:48:29;10.80;79.31
65972;SHT31;52726;48.852;9.152;2023-05-29T02:50:55;10.80;79.71
65972;SHT31;52726;48.852;9.152;2023-05-29T02:53:20;10.78;79.25
65972;SHT31;52726;48.852;9.152;2023-05-29T02:55:45;10.74;79.10
65972;SHT31;52726;48.852;9.152;2023-05-29T02:58:12;10.70;79.34
65972;SHT31;52726;48.852;9.152;2023-05-29T03:00:37;10.64;79.28
65972;SHT31;52726;48.852;9.152;2023-05-29T03:03:03;10.63;79.36
65972;SHT31;52726;48.852;9.152;2023-05-29T03:05:29;10.61;79.69
65972;SHT31;52726;48.852;9.152;2023-05-29T03:07:54;10.56;79.64
65972;SHT31;52726;48.852;9.152;2023-05-29T03:10:20;10.56;79.78
65972;SHT31;52726;48.852;9.152;2023-05-29T03:12:46;10.57;79.58
65972;SHT31;52726;48.852;9.152;2023-05-29T03:15:12;10.54;79.69
65972;SHT31;52726;48.852;9.152;2023-05-29T03:17:37;10.46;79.84
65972;SHT31;52726;48.852;9.152;2023-05-29T03:20:04;10.44;80.06
65972;SHT31;52726;48.852;9.152;2023-05-29T03:22:34;10.37;80.25
65972;SHT31;52726;48.852;9.152;2023-05-29T03:25:00;10.40;80.10
65972;SHT31;52726;48.852;9.152;2023-05-29T03:27:26;10.42;79.88
65972;SHT31;52726;48.852;9.152;2023-05-29T03:29:52;10.40;79.84
65972;SHT31;52726;48.852;9.152;2023-05-29T03:32:17;10.33;79.94
65972;SHT31;52726;48.852;9.152;2023-05-29T03:34:43;10.30;80.04
65972;SHT31;52726;48.852;9.152;2023-05-29T03:37:08;10.28;79.96
65972;SHT31;52726;48.852;9.152;2023-05-29T03:39:34;10.26;80.63
65972;SHT31;52726;48.852;9.152;2023-05-29T03:42:00;10.25;80.60
65972;SHT31;52726;48.852;9.152;2023-05-29T03:44:28;10.25;80.20
65972;SHT31;52726;48.852;9.152;2023-05-29T03:46:53;10.22;81.31
65972;SHT31;52726;48.852;9.152;2023-05-29T03:49:19;10.19;80.54
65972;SHT31;52726;48.852;9.152;2023-05-29T03:51:44;10.20;80.94
65972;SHT31;52726;48.852;9.152;2023-05-29T03:54:10;10.20;81.09
65972;SHT31;52726;48.852;9.152;2023-05-29T03:56:35;10.20;81.41
65972;SHT31;52726;48.852;9.152;2023-05-29T03:59:01;10.22;81.66
65972;SHT31;52726;48.852;9.152;2023-05-29T04:01:26;10.22;81.46
65972;SHT31;52726;48.852;9.152;2023-05-29T04:03:53;10.26;80.99
65972;SHT31;52726;48.852;9.152;2023-05-29T04:06:18;10.26;80.58
65972;SHT31;52726;48.852;9.152;2023-05-29T04:08:43;10.30;80.64
65972;SHT31;52726;48.852;9.152;2023-05-29T04:11:09;10.29;80.85
65972;SHT31;52726;48.852;9.152;2023-05-29T04:13:37;10.29;81.45
65972;SHT31;52726;48.852;9.152;2023-05-29T04:16:03;10.25;81.97
65972;SHT31;52726;48.852;9.152;2023-05-29T04:18:28;10.29;81.98
65972;SHT31;52726;48.852;9.152;2023-05-29T04:20:53;10.33;80.83
65972;SHT31;52726;48.852;9.152;2023-05-29T04:23:19;10.32;81.69
65972;SHT31;52726;48.852;9.152;2023-05-29T04:25:45;10.33;81.75
65972;SHT31;52726;48.852;9.152;2023-05-29T04:28:10;10.40;81.49
65972;SHT31;52726;48.852;9.152;2023-05-29T04:30:37;10.46;81.31
65972;SHT31;52726;48.852;9.152;2023-05-29T04:33:04;10.54;81.59
65972;SHT31;52726;48.852;9.152;2023-05-29T04:35:30;10.59;81.22
65972;SHT31;52726;48.852;9.152;2023-05-29T04:37:55;10.67;80.74
65972;SHT31;52726;48.852;9.152;2023-05-29T04:40:21;10.72;80.67
65972;SHT31;52726;48.852;9.152;2023-05-29T04:42:47;10.82;80.83
65972;SHT31;52726;48.852;9.152;2023-05-29T04:45:12;10.90;80.69
65972;SHT31;52726;48.852;9.152;2023-05-29T04:47:38;11.02;80.85
65972;SHT31;52726;48.852;9.152;2023-05-29T04:50:13;11.11;80.27
65972;SHT31;52726;48.852;9.152;2023-05-29T04:52:39;11.28;79.40
65972;SHT31;52726;48.852;9.152;2023-05-29T04:55:05;11.43;79.21
65972;SHT31;52726;48.852;9.152;2023-05-29T04:57:31;11.57;78.57
65972;SHT31;52726;48.852;9.152;2023-05-29T04:59:56;11.71;78.01
65972;SHT31;52726;48.852;9.152;2023-05-29T05:02:21;11.83;77.68
65972;SHT31;52726;48.852;9.152;2023-05-29T05:04:47;11.97;77.36
65972;SHT31;52726;48.852;9.152;2023-05-29T05:07:12;12.06;77.33
65972;SHT31;52726;48.852;9.152;2023-05-29T05:09:38;12.12;77.12
65972;SHT31;52726;48.852;9.152;2023-05-29T05:12:03;12.26;76.34
65972;SHT31;52726;48.852;9.152;2023-05-29T05:14:29;12.28;76.60
65972;SHT31;52726;48.852;9.152;2023-05-29T05:16:54;12.43;75.72
65972;SHT31;52726;48.852;9.152;2023-05-29T05:19:20;12.49;75.14
65972;SHT31;52726;48.852;9.152;2023-05-29T05:21:45;12.57;75.00
65972;SHT31;52726;48.852;9.152;2023-05-29T05:24:10;12.64;74.97
65972;SHT31;52726;48.852;9.152;2023-05-29T05:26:36;12.75;74.56
65972;SHT31;52726;48.852;9.152;2023-05-29T05:29:01;12.83;75.05
65972;SHT31;52726;48.852;9.152;2023-05-29T05:31:26;12.94;74.35
65972;SHT31;52726;48.852;9.152;2023-05-29T05:33:52;12.98;74.76
65972;SHT31;52726;48.852;9.152;2023-05-29T05:36:18;13.04;75.55
65972;SHT31;52726;48.852;9.152;2023-05-29T05:38:43;13.10;75.41
65972;SHT31;52726;48.852;9.152;2023-05-29T05:41:09;13.18;75.09
65972;SHT31;52726;48.852;9.152;2023-05-29T05:43:35;13.29;75.02
65972;SHT31;52726;48.852;9.152;2023-05-29T05:46:00;13.39;74.26
65972;SHT31;52726;48.852;9.152;2023-05-29T05:48:25;13.55;73.63
65972;SHT31;52726;48.852;9.152;2023-05-29T05:50:51;13.69;74.15
65972;SHT31;52726;48.852;9.152;2023-05-29T05:53:16;13.80;74.27
65972;SHT31;52726;48.852;9.152;2023-05-29T05:55:42;13.93;74.74
65972;SHT31;52726;48.852;9.152;2023-05-29T05:58:07;14.04;73.76
65972;SHT31;52726;48.852;9.152;2023-05-29T06:00:33;14.17;74.25
65972;SHT31;52726;48.852;9.152;2023-05-29T06:02:58;14.27;73.51
65972;SHT31;52726;48.852;9.152;2023-05-29T06:05:25;14.40;72.44
65972;SHT31;52726;48.852;9.152;2023-05-29T06:07:50;14.48;72.03
65972;SHT31;52726;48.852;9.152;2023-05-29T06:10:16;14.67;72.52
65972;SHT31;52726;48.852;9.152;2023-05-29T06:12:41;14.75;71.33
65972;SHT31;52726;48.852;9.152;2023-05-29T06:15:07;14.85;70.19
65972;SHT31;52726;48.852;9.152;2023-05-29T06:17:32;15.04;70.63
65972;SHT31;52726;48.852;9.152;2023-05-29T06:19:58;15.14;70.34
65972;SHT31;52726;48.852;9.152;2023-05-29T06:22:23;15.33;70.19
65972;SHT31;52726;48.852;9.152;2023-05-29T06:24:49;15.57;70.44
65972;SHT31;52726;48.852;9.152;2023-05-29T06:27:14;15.78;69.25
65972;SHT31;52726;48.852;9.152;2023-05-29T06:29:39;16.05;66.45
65972;SHT31;52726;48.852;9.152;2023-05-29T06:32:05;16.60;63.76
65972;SHT31;52726;48.852;9.152;2023-05-29T06:34:31;17.33;62.83
65972;SHT31;52726;48.852;9.152;2023-05-29T06:36:56;17.90;61.51
65972;SHT31;52726;48.852;9.152;2023-05-29T06:39:21;18.30;60.42
65972;SHT31;52726;48.852;9.152;2023-05-29T06:41:47;18.77;59.74
65972;SHT31;52726;48.852;9.152;2023-05-29T06:44:12;19.11;58.07
65972;SHT31;52726;48.852;9.152;2023-05-29T06:46:38;19.04;57.51
65972;SHT31;52726;48.852;9.152;2023-05-29T06:49:03;19.28;56.41
65972;SHT31;52726;48.852;9.152;2023-05-29T06:51:29;19.41;57.03
65972;SHT31;52726;48.852;9.152;2023-05-29T06:53:54;19.58;56.34
65972;SHT31;52726;48.852;9.152;2023-05-29T06:56:20;20.06;56.23
65972;SHT31;52726;48.852;9.152;2023-05-29T06:58:46;20.14;55.10
65972;SHT31;52726;48.852;9.152;2023-05-29T07:01:11;20.29;54.57
65972;SHT31;52726;48.852;9.152;2023-05-29T07:03:36;20.27;54.06
65972;SHT31;52726;48.852;9.152;2023-05-29T07:06:02;20.44;54.40
65972;SHT31;52726;48.852;9.152;2023-05-29T07:08:28;20.37;52.78
65972;SHT31;52726;48.852;9.152;2023-05-29T07:10:54;20.42;52.31
65972;SHT31;52726;48.852;9.152;2023-05-29T07:13:20;20.39;53.26
65972;SHT31;52726;48.852;9.152;2023-05-29T07:15:46;20.41;52.20
65972;SHT31;52726;48.852;9.152;2023-05-29T07:18:11;20.69;51.84
65972;SHT31;52726;48.852;9.152;2023-05-29T07:20:37;20.99;50.89
65972;SHT31;52726;48.852;9.152;2023-05-29T07:23:02;21.15;50.99
65972;SHT31;52726;48.852;9.152;2023-05-29T07:25:47;21.48;51.62
65972;SHT31;52726;48.852;9.152;2023-05-29T07:28:13;21.68;51.28
65972;SHT31;52726;48.852;9.152;2023-05-29T07:30:38;21.63;49.50
65972;SHT31;52726;48.852;9.152;2023-05-29T07:33:04;22.14;49.50
65972;SHT31;52726;48.852;9.152;2023-05-29T07:35:30;22.24;48.59
65972;SHT31;52726;48.852;9.152;2023-05-29T07:37:58;22.10;49.83
65972;SHT31;52726;48.852;9.152;2023-05-29T07:40:23;22.32;47.33
65972;SHT31;52726;48.852;9.152;2023-05-29T07:42:49;22.13;48.38
65972;SHT31;52726;48.852;9.152;2023-05-29T07:45:14;22.21;48.71
65972;SHT31;52726;48.852;9.152;2023-05-29T07:47:40;22.09;48.48
65972;SHT31;52726;48.852;9.152;2023-05-29T07:50:05;22.32;48.61
65972;SHT31;52726;48.852;9.152;2023-05-29T07:52:31;22.26;49.46
65972;SHT31;52726;48.852;9.152;2023-05-29T07:54:57;22.53;48.87
65972;SHT31;52726;48.852;9.152;2023-05-29T07:57:22;22.99;46.47
65972;SHT31;52726;48.852;9.152;2023-05-29T07:59:48;23.29;47.56
65972;SHT31;52726;48.852;9.152;2023-05-29T08:02:16;23.49;46.56
65972;SHT31;52726;48.852;9.152;2023-05-29T08:04:42;23.95;45.34
65972;SHT31;52726;48.852;9.152;2023-05-29T08:07:07;24.00;45.28
65972;SHT31;52726;48.852;9.152;2023-05-29T08:09:34;23.50;45.53
65972;SHT31;52726;48.852;9.152;2023-05-29T08:12:00;23.29;46.05
65972;SHT31;52726;48.852;9.152;2023-05-29T08:14:26;23.56;46.78
65972;SHT31;52726;48.852;9.152;2023-05-29T08:16:51;24.00;45.32
65972;SHT31;52726;48.852;9.152;2023-05-29T08:19:17;23.70;45.28
65972;SHT31;52726;48.852;9.152;2023-05-29T08:21:42;23.64;46.55
65972;SHT31;52726;48.852;9.152;2023-05-29T08:24:08;23.77;46.43
65972;SHT31;52726;48.852;9.152;2023-05-29T08:26:34;24.21;44.97
65972;SHT31;52726;48.852;9.152;2023-05-29T08:29:00;23.78;46.62
65972;SHT31;52726;48.852;9.152;2023-05-29T08:31:26;23.60;46.40
65972;SHT31;52726;48.852;9.152;2023-05-29T08:33:52;23.43;47.77
65972;SHT31;52726;48.852;9.152;2023-05-29T08:36:18;24.15;45.73
65972;SHT31;52726;48.852;9.152;2023-05-29T08:38:50;24.45;44.56
65972;SHT31;52726;48.852;9.152;2023-05-29T08:41:25;24.28;46.04
65972;SHT31;52726;48.852;9.152;2023-05-29T08:43:54;24.35;45.94
65972;SHT31;52726;48.852;9.152;2023-05-29T08:46:20;24.64;44.75
65972;SHT31;52726;48.852;9.152;2023-05-29T08:48:48;24.79;43.58
65972;SHT31;52726;48.852;9.152;2023-05-29T08:51:16;24.57;46.07
65972;SHT31;52726;48.852;9.152;2023-05-29T08:54:02;24.30;43.70
65972;SHT31;52726;48.852;9.152;2023-05-29T08:56:28;24.86;44.57
65972;SHT31;52726;48.852;9.152;2023-05-29T08:58:53;25.07;43.55
65972;SHT31;52726;48.852;9.152;2023-05-29T09:01:20;24.43;44.52
65972;SHT31;52726;48.852;9.152;2023-05-29T09:03:47;24.72;44.36
65972;SHT31;52726;48.852;9.152;2023-05-29T09:06:12;24.69;45.05
65972;SHT31;52726;48.852;9.152;2023-05-29T09:08:37;24.94;43.50
65972;SHT31;52726;48.852;9.152;2023-05-29T09:11:03;25.34;42.74
65972;SHT31;52726;48.852;9.152;2023-05-29T09:13:29;25.70;44.27
65972;SHT31;52726;48.852;9.152;2023-05-29T09:16:00;25.24;42.37
65972;SHT31;52726;48.852;9.152;2023-05-29T09:18:32;25.06;43.61
65972;SHT31;52726;48.852;9.152;2023-05-29T09:20:58;25.01;44.83
65972;SHT31;52726;48.852;9.152;2023-05-29T09:23:25;24.77;44.46
65972;SHT31;52726;48.852;9.152;2023-05-29T09:25:52;25.03;43.87
65972;SHT31;52726;48.852;9.152;2023-05-29T09:28:18;25.12;44.38
65972;SHT31;52726;48.852;9.152;2023-05-29T09:30:46;25.15;45.27
65972;SHT31;52726;48.852;9.152;2023-05-29T09:33:15;25.22;43.77
65972;SHT31;52726;48.852;9.152;2023-05-29T09:35:46;25.62;45.35
65972;SHT31;52726;48.852;9.152;2023-05-29T09:38:13;25.72;44.13
65972;SHT31;52726;48.852;9.152;2023-05-29T09:40:40;25.65;42.98
65972;SHT31;52726;48.852;9.152;2023-05-29T09:43:10;25.79;42.35
65972;SHT31;52726;48.852;9.152;2023-05-29T09:45:39;25.22;42.96
65972;SHT31;52726;48.852;9.152;2023-05-29T09:48:12;25.18;43.65
65972;SHT31;52726;48.852;9.152;2023-05-29T09:50:37;25.38;44.25
65972;SHT31;52726;48.852;9.152;2023-05-29T09:53:03;25.24;42.45
65972;SHT31;52726;48.852;9.152;2023-05-29T09:55:30;25.37;43.20
65972;SHT31;52726;48.852;9.152;2023-05-29T09:57:57;25.63;43.84
65972;SHT31;52726;48.852;9.152;2023-05-29T10:00:24;25.41;42.63
65972;SHT31;52726;48.852;9.152;2023-05-29T10:02:49;25.77;43.22
65972;SHT31;52726;48.852;9.152;2023-05-29T10:05:15;25.96;42.92
65972;SHT31;52726;48.852;9.152;2023-05-29T10:07:46;26.76;43.86
65972;SHT31;52726;48.852;9.152;2023-05-29T10:10:13;26.37;38.74
65972;SHT31;52726;48.852;9.152;2023-05-29T10:12:44;25.93;38.44
65972;SHT31;52726;48.852;9.152;2023-05-29T10:15:14;26.34;38.17
65972;SHT31;52726;48.852;9.152;2023-05-29T10:20:14;26.30;38.21
65972;SHT31;52726;48.852;9.152;2023-05-29T10:22:45;26.28;37.87
65972;SHT31;52726;48.852;9.152;2023-05-29T10:25:13;26.62;37.21
65972;SHT31;52726;48.852;9.152;2023-05-29T10:27:38;26.42;35.91
65972;SHT31;52726;48.852;9.152;2023-05-29T10:30:11;25.80;37.46
65972;SHT31;52726;48.852;9.152;2023-05-29T10:32:59;25.70;38.06
65972;SHT31;52726;48.852;9.152;2023-05-29T10:35:51;25.65;37.93
65972;SHT31;52726;48.852;9.152;2023-05-29T10:38:21;26.08;35.85
65972;SHT31;52726;48.852;9.152;2023-05-29T10:47:07;25.83;37.41
65972;SHT31;52726;48.852;9.152;2023-05-29T10:49:34;25.76;36.86
65972;SHT31;52726;48.852;9.152;2023-05-29T10:51:59;26.16;36.73
65972;SHT31;52726;48.852;9.152;2023-05-29T10:54:25;26.58;35.72
65972;SHT31;52726;48.852;9.152;2023-05-29T10:57:01;26.73;35.71
65972;SHT31;52726;48.852;9.152;2023-05-29T10:59:27;26.79;35.46
65972;SHT31;52726;48.852;9.152;2023-05-29T11:01:54;26.17;35.95
65972;SHT31;52726;48.852;9.152;2023-05-29T11:05:19;26.40;37.46
65972;SHT31;52726;48.852;9.152;2023-05-29T11:08:12;26.47;35.79
65972;SHT31;52726;48.852;9.152;2023-05-29T11:10:54;26.42;35.60
65972;SHT31;52726;48.852;9.152;2023-05-29T11:13:27;26.75;34.77
65972;SHT31;52726;48.852;9.152;2023-05-29T11:16:12;26.82;34.61
65972;SHT31;52726;48.852;9.152;2023-05-29T11:18:44;27.14;35.28
65972;SHT31;52726;48.852;9.152;2023-05-29T11:24:03;26.52;36.19
65972;SHT31;52726;48.852;9.152;2023-05-29T11:26:30;26.48;35.35
65972;SHT31;52726;48.852;9.152;2023-05-29T11:29:03;26.08;35.76
65972;SHT31;52726;48.852;9.152;2023-05-29T11:31:31;25.65;35.27
65972;SHT31;52726;48.852;9.152;2023-05-29T11:34:02;26.16;34.12
65972;SHT31;52726;48.852;9.152;2023-05-29T11:36:44;26.30;35.12
65972;SHT31;52726;48.852;9.152;2023-05-29T11:39:10;25.92;33.88
65972;SHT31;52726;48.852;9.152;2023-05-29T11:41:35;26.14;33.01
65972;SHT31;52726;48.852;9.152;2023-05-29T11:44:02;25.82;33.94
65972;SHT31;52726;48.852;9.152;2023-05-29T11:46:29;26.10;33.42
65972;SHT31;52726;48.852;9.152;2023-05-29T11:49:00;26.30;31.56
65972;SHT31;52726;48.852;9.152;2023-05-29T11:51:27;26.40;32.13
65972;SHT31;52726;48.852;9.152;2023-05-29T11:53:52;26.32;31.94
65972;SHT31;52726;48.852;9.152;2023-05-29T11:56:27;26.40;31.31
65972;SHT31;52726;48.852;9.152;2023-05-29T11:58:54;26.13;32.84
65972;SHT31;52726;48.852;9.152;2023-05-29T12:01:27;26.12;31.21
65972;SHT31;52726;48.852;9.152;2023-05-29T12:03:53;25.83;32.28
65972;SHT31;52726;48.852;9.152;2023-05-29T12:06:35;25.61;32.34
65972;SHT31;52726;48.852;9.152;2023-05-29T12:09:27;25.65;31.87
65972;SHT31;52726;48.852;9.152;2023-05-29T12:12:02;25.80;32.37
65972;SHT31;52726;48.852;9.152;2023-05-29T12:14:28;25.80;32.14
65972;SHT31;52726;48.852;9.152;2023-05-29T12:16:53;26.00;35.01
65972;SHT31;52726;48.852;9.152;2023-05-29T12:19:19;25.92;31.92
65972;SHT31;52726;48.852;9.152;2023-05-29T12:21:44;25.77;31.04
65972;SHT31;52726;48.852;9.152;2023-05-29T12:24:10;25.70;31.23
65972;SHT31;52726;48.852;9.152;2023-05-29T12:30:01;26.28;35.12
65972;SHT31;52726;48.852;9.152;2023-05-29T12:32:55;26.34;30.98
65972;SHT31;52726;48.852;9.152;2023-05-29T12:35:24;26.47;29.58
65972;SHT31;52726;48.852;9.152;2023-05-29T12:37:53;26.51;31.26
65972;SHT31;52726;48.852;9.152;2023-05-29T12:40:21;26.25;29.60
65972;SHT31;52726;48.852;9.152;2023-05-29T12:42:48;25.77;30.22
65972;SHT31;52726;48.852;9.152;2023-05-29T12:45:14;25.80;31.15
65972;SHT31;52726;48.852;9.152;2023-05-29T12:48:06;26.10;32.47
65972;SHT31;52726;48.852;9.152;2023-05-29T12:50:33;26.18;31.52
65972;SHT31;52726;48.852;9.152;2023-05-29T12:53:15;26.14;32.28
65972;SHT31;52726;48.852;9.152;2023-05-29T12:55:42;26.07;31.51
65972;SHT31;52726;48.852;9.152;2023-05-29T12:58:12;26.10;32.53
65972;SHT31;52726;48.852;9.152;2023-05-29T13:00:40;25.90;30.63
65972;SHT31;52726;48.852;9.152;2023-05-29T13:06:15;25.83;31.44
65972;SHT31;52726;48.852;9.152;2023-05-29T13:08:40;25.70;33.64
65972;SHT31;52726;48.852;9.152;2023-05-29T13:11:06;26.23;31.28
65972;SHT31;52726;48.852;9.152;2023-05-29T13:13:31;26.17;30.10
65972;SHT31;52726;48.852;9.152;2023-05-29T13:15:57;26.35;29.79
65972;SHT31;52726;48.852;9.152;2023-05-29T13:18:25;26.35;30.24
65972;SHT31;52726;48.852;9.152;2023-05-29T13:20:50;26.53;32.16
65972;SHT31;52726;48.852;9.152;2023-05-29T13:23:16;26.47;29.87
65972;SHT31;52726;48.852;9.152;2023-05-29T13:25:41;26.63;28.57
65972;SHT31;52726;48.852;9.152;2023-05-29T13:28:06;26.20;31.58
65972;SHT31;52726;48.852;9.152;2023-05-29T13:30:50;25.97;32.16
65972;SHT31;52726;48.852;9.152;2023-05-29T13:33:15;26.05;32.51
65972;SHT31;52726;48.852;9.152;2023-05-29T13:35:40;26.18;30.48
65972;SHT31;52726;48.852;9.152;2023-05-29T13:38:06;26.10;31.80
65972;SHT31;52726;48.852;9.152;2023-05-29T13:40:31;26.17;30.51
65972;SHT31;52726;48.852;9.152;2023-05-29T13:43:00;26.27;31.90
65972;SHT31;52726;48.852;9.152;2023-05-29T13:45:25;25.90;30.90
65972;SHT31;52726;48.852;9.152;2023-05-29T13:53:06;26.14;31.07
65972;SHT31;52726;48.852;9.152;2023-05-29T13:55:31;26.14;31.22
65972;SHT31;52726;48.852;9.152;2023-05-29T13:57:57;26.32;30.46
65972;SHT31;52726;48.852;9.152;2023-05-29T14:00:23;26.40;30.07
65972;SHT31;52726;48.852;9.152;2023-05-29T14:02:48;26.20;31.00
65972;SHT31;52726;48.852;9.152;2023-05-29T14:05:13;26.17;29.73
65972;SHT31;52726;48.852;9.152;2023-05-29T14:07:39;26.32;29.54
65972;SHT31;52726;48.852;9.152;2023-05-29T14:10:05;26.34;29.13
65972;SHT31;52726;48.852;9.152;2023-05-29T14:12:36;26.18;31.15
65972;SHT31;52726;48.852;9.152;2023-05-29T14:15:02;26.03;30.68
65972;SHT31;52726;48.852;9.152;2023-05-29T14:17:30;25.86;32.21
65972;SHT31;52726;48.852;9.152;2023-05-29T14:19:56;26.28;34.39
65972;SHT31;52726;48.852;9.152;2023-05-29T14:22:21;26.28;33.20
65972;SHT31;52726;48.852;9.152;2023-05-29T14:24:46;26.49;32.29
65972;SHT31;52726;48.852;9.152;2023-05-29T14:27:12;26.10;32.61
65972;SHT31;52726;48.852;9.152;2023-05-29T14:29:37;26.14;33.51
65972;SHT31;52726;48.852;9.152;2023-05-29T14:32:03;25.97;32.47
65972;SHT31;52726;48.852;9.152;2023-05-29T14:34:31;25.89;31.46
65972;SHT31;52726;48.852;9.152;2023-05-29T14:36:56;26.01;32.68
65972;SHT31;52726;48.852;9.152;2023-05-29T14:39:22;26.03;33.83
65972;SHT31;52726;48.852;9.152;2023-05-29T14:41:47;26.17;31.93
65972;SHT31;52726;48.852;9.152;2023-05-29T14:44:13;26.38;32.96
65972;SHT31;52726;48.852;9.152;2023-05-29T14:46:39;26.34;31.59
65972;SHT31;52726;48.852;9.152;2023-05-29T14:49:04;26.10;32.94
65972;SHT31;52726;48.852;9.152;2023-05-29T14:51:30;26.24;32.07
65972;SHT31;52726;48.852;9.152;2023-05-29T14:53:56;26.49;34.17
65972;SHT31;52726;48.852;9.152;2023-05-29T14:56:21;26.30;31.75
65972;SHT31;52726;48.852;9.152;2023-05-29T14:58:49;26.47;33.83
65972;SHT31;52726;48.852;9.152;2023-05-29T15:01:16;26.48;32.51
65972;SHT31;52726;48.852;9.152;2023-05-29T15:03:41;26.52;33.70
65972;SHT31;52726;48.852;9.152;2023-05-29T15:06:08;26.56;31.88
65972;SHT31;52726;48.852;9.152;2023-05-29T15:08:34;26.31;33.72
65972;SHT31;52726;48.852;9.152;2023-05-29T15:11:03;26.16;33.83
65972;SHT31;52726;48.852;9.152;2023-05-29T15:13:28;25.97;33.30
65972;SHT31;52726;48.852;9.152;2023-05-29T15:15:54;26.17;33.29
65972;SHT31;52726;48.852;9.152;2023-05-29T15:18:20;26.23;33.08
65972;SHT31;52726;48.852;9.152;2023-05-29T15:20:45;26.31;33.65
65972;SHT31;52726;48.852;9.152;2023-05-29T15:23:10;26.34;35.20
65972;SHT31;52726;48.852;9.152;2023-05-29T15:25:36;26.24;33.26
65972;SHT31;52726;48.852;9.152;2023-05-29T15:28:01;26.38;33.88
65972;SHT31;52726;48.852;9.152;2023-05-29T15:30:28;26.47;32.52
65972;SHT31;52726;48.852;9.152;2023-05-29T15:32:53;26.45;32.70
65972;SHT31;52726;48.852;9.152;2023-05-29T15:35:21;26.13;34.41
65972;SHT31;52726;48.852;9.152;2023-05-29T15:37:47;26.16;35.02
65972;SHT31;52726;48.852;9.152;2023-05-29T15:43:34;26.14;34.03
65972;SHT31;52726;48.852;9.152;2023-05-29T15:46:00;25.98;34.52
65972;SHT31;52726;48.852;9.152;2023-05-29T15:48:28;26.03;33.71
65972;SHT31;52726;48.852;9.152;2023-05-29T15:50:53;25.97;32.09
65972;SHT31;52726;48.852;9.152;2023-05-29T15:53:18;25.87;32.30
65972;SHT31;52726;48.852;9.152;2023-05-29T15:55:44;25.77;33.59
65972;SHT31;52726;48.852;9.152;2023-05-29T15:58:09;25.72;34.21
65972;SHT31;52726;48.852;9.152;2023-05-29T16:00:34;25.79;33.08
65972;SHT31;52726;48.852;9.152;2023-05-29T16:03:01;25.83;32.96
65972;SHT31;52726;48.852;9.152;2023-05-29T16:05:27;25.76;33.83